No particular awareness of the weather is required.    There are no Weather-warnings


Meteo18 Weather Cam more information Meteo18 Weather Cam


Thunder radar more information blitzortung!


Rain radar more information rain snow radar


Visit our other weather sites:

Template documentation
and downloads

And another site



Weather Underground History page Text

Daily Summary for February 7, 2017 Units:  Both    English   Metric
« Previous Day
Next Day »
Daily Weekly Monthly Yearly Custom
  High: Low: Average:
Temperature: TemperatureC °F /  -17.8 °C 3.6 °F /  -15.8 °C 6.2 °F /  -14.3 °C
Dew Point: DewpointC °F /  -17.8 °C 2.7 °F /  -16.3 °C 4.4 °F /  -15.3 °C
Humidity: Humidity % 74 % 88 %
Wind Speed: WindSpeedKMH mph /  0 km/h - 3.8 mph /  6.1 km/h
Wind Gust: WindSpeedGustKMH mph /  0 km/h - -
Wind:- - WSW
Pressure: PressurehPa in /  0 hPa 1015.8 in /  34395 hPa -
Precipitation: 5.1 in /  129.54 mm    
Historical Graphs
 
 
Tabular Data for February 7, 2017
Time Temperature Dew Point Pressure Wind Wind Speed Wind Gust Humidity Rainfall Rate (Hourly)
TemperatureC °F /  -17.8 °C DewpointC °F /  -17.8 °C PressurehPa in /  0 hPa Calm     Humidity % HourlyPrecipMM in /  0 mm
00:02 4.2 °F /  -15.4 °C 2.9 °F /  -16.2 °C 1019.5 in /  34520.3 hPa Calm   3.2 mph /  5.1 km/h 91 % 0.0 in /  0 mm
00:07 4.2 °F /  -15.4 °C 2.9 °F /  -16.2 °C 1019.5 in /  34520.3 hPa Calm   3.2 mph /  5.1 km/h 91 % 0.0 in /  0 mm
00:12 4.1 °F /  -15.5 °C 2.8 °F /  -16.2 °C 1019.5 in /  34520.3 hPa Calm   1.6 mph /  2.6 km/h 91 % 0.0 in /  0 mm
00:17 4.1 °F /  -15.5 °C 2.8 °F /  -16.2 °C 1019.5 in /  34520.3 hPa Calm   1.6 mph /  2.6 km/h 91 % 0.0 in /  0 mm
00:22 4.1 °F /  -15.5 °C 2.8 °F /  -16.2 °C 1019.2 in /  34510.1 hPa Calm   1.6 mph /  2.6 km/h 91 % 0.0 in /  0 mm
00:27 4.1 °F /  -15.5 °C 2.8 °F /  -16.2 °C 1019.2 in /  34510.1 hPa Calm   1.6 mph /  2.6 km/h 91 % 0.0 in /  0 mm
00:32 4.1 °F /  -15.5 °C 2.8 °F /  -16.2 °C 1019.2 in /  34510.1 hPa Calm   1.6 mph /  2.6 km/h 91 % 0.0 in /  0 mm
00:42 4.2 °F /  -15.4 °C 2.7 °F /  -16.3 °C 1019.2 in /  34510.1 hPa Calm   1.6 mph /  2.6 km/h 90 % 0.0 in /  0 mm
00:52 4.2 °F /  -15.4 °C 2.7 °F /  -16.3 °C 1018.8 in /  34496.6 hPa Calm   1.6 mph /  2.6 km/h 90 % 0.0 in /  0 mm
00:57 4.2 °F /  -15.4 °C 2.7 °F /  -16.3 °C 1018.8 in /  34496.6 hPa Calm   1.6 mph /  2.6 km/h 90 % 0.0 in /  0 mm
01:02 4.2 °F /  -15.4 °C 2.7 °F /  -16.3 °C 1018.8 in /  34496.6 hPa Calm   1.6 mph /  2.6 km/h 90 % 0.0 in /  0 mm
01:07 4.3 °F /  -15.4 °C 2.8 °F /  -16.2 °C 1018.8 in /  34496.6 hPa Calm   3.2 mph /  5.1 km/h 90 % 0.0 in /  0 mm
01:12 4.3 °F /  -15.4 °C 2.8 °F /  -16.2 °C 1018.8 in /  34496.6 hPa Calm   3.2 mph /  5.1 km/h 90 % 0.0 in /  0 mm
01:17 4.3 °F /  -15.4 °C 2.8 °F /  -16.2 °C 1018.8 in /  34496.6 hPa Calm   3.2 mph /  5.1 km/h 90 % 0.0 in /  0 mm
01:22 4.3 °F /  -15.4 °C 2.8 °F /  -16.2 °C 1018.8 in /  34496.6 hPa Calm   1.6 mph /  2.6 km/h 90 % 0.0 in /  0 mm
01:27 4.4 °F /  -15.3 °C 2.9 °F /  -16.2 °C 1018.8 in /  34496.6 hPa SSW 1.6 mph /  2.6 km/h 3.2 mph /  5.1 km/h 90 % 0.0 in /  0 mm
01:32 4.4 °F /  -15.3 °C 2.7 °F /  -16.3 °C 1018.8 in /  34496.6 hPa Calm   3.2 mph /  5.1 km/h 89 % 0.0 in /  0 mm
01:37 4.4 °F /  -15.3 °C 2.9 °F /  -16.2 °C 1018.5 in /  34486.4 hPa SSW 1.6 mph /  2.6 km/h 3.2 mph /  5.1 km/h 90 % 0.0 in /  0 mm
01:42 4.4 °F /  -15.3 °C 2.9 °F /  -16.2 °C 1018.5 in /  34486.4 hPa Calm   3.2 mph /  5.1 km/h 90 % 0.0 in /  0 mm
01:52 4.4 °F /  -15.3 °C 2.9 °F /  -16.2 °C 1018.5 in /  34486.4 hPa South 1.6 mph /  2.6 km/h 4.8 mph /  7.7 km/h 90 % 0.0 in /  0 mm
01:57 4.3 °F /  -15.4 °C 2.8 °F /  -16.2 °C 1018.5 in /  34486.4 hPa South 3.2 mph /  5.1 km/h 4.8 mph /  7.7 km/h 90 % 0.0 in /  0 mm
02:02 4.3 °F /  -15.4 °C 2.8 °F /  -16.2 °C 1018.2 in /  34476.3 hPa SSW 1.6 mph /  2.6 km/h 4.8 mph /  7.7 km/h 90 % 0.0 in /  0 mm
02:07 4.4 °F /  -15.3 °C 2.9 °F /  -16.2 °C 1018.2 in /  34476.3 hPa SSW 3.2 mph /  5.1 km/h 6.4 mph /  10.3 km/h 90 % 0.0 in /  0 mm
02:12 4.4 °F /  -15.3 °C 2.9 °F /  -16.2 °C 1018.2 in /  34476.3 hPa Calm   8.0 mph /  12.9 km/h 90 % 0.0 in /  0 mm
02:17 4.3 °F /  -15.4 °C 2.8 °F /  -16.2 °C 1018.2 in /  34476.3 hPa South 1.6 mph /  2.6 km/h 8.0 mph /  12.9 km/h 90 % 0.0 in /  0 mm
02:22 4.3 °F /  -15.4 °C 3.0 °F /  -16.1 °C 1017.8 in /  34462.7 hPa SSW 4.8 mph /  7.7 km/h 8.0 mph /  12.9 km/h 91 % 0.0 in /  0 mm
02:27 4.3 °F /  -15.4 °C 2.8 °F /  -16.2 °C 1017.8 in /  34462.7 hPa SSW 1.6 mph /  2.6 km/h 6.4 mph /  10.3 km/h 90 % 0.0 in /  0 mm
02:32 4.3 °F /  -15.4 °C 2.8 °F /  -16.2 °C 1017.8 in /  34462.7 hPa South 1.6 mph /  2.6 km/h 6.4 mph /  10.3 km/h 90 % 0.0 in /  0 mm
02:42 4.4 °F /  -15.3 °C 2.9 °F /  -16.2 °C 1017.8 in /  34462.7 hPa SSW 1.6 mph /  2.6 km/h 6.4 mph /  10.3 km/h 90 % 0.0 in /  0 mm
02:47 4.4 °F /  -15.3 °C 3.1 °F /  -16.1 °C 1017.8 in /  34462.7 hPa SSW 1.6 mph /  2.6 km/h 4.8 mph /  7.7 km/h 91 % 0.0 in /  0 mm
02:52 4.4 °F /  -15.3 °C 2.9 °F /  -16.2 °C 1017.8 in /  34462.7 hPa South 1.6 mph /  2.6 km/h 4.8 mph /  7.7 km/h 90 % 0.0 in /  0 mm
02:57 4.4 °F /  -15.3 °C 2.9 °F /  -16.2 °C 1017.5 in /  34452.6 hPa Calm   4.8 mph /  7.7 km/h 90 % 0.0 in /  0 mm
03:02 4.4 °F /  -15.3 °C 2.9 °F /  -16.2 °C 1017.5 in /  34452.6 hPa SSE 1.6 mph /  2.6 km/h 4.8 mph /  7.7 km/h 90 % 0.0 in /  0 mm
03:07 4.4 °F /  -15.3 °C 2.9 °F /  -16.2 °C 1017.5 in /  34452.6 hPa SSE 1.6 mph /  2.6 km/h 3.2 mph /  5.1 km/h 90 % 0.0 in /  0 mm
03:12 4.4 °F /  -15.3 °C 2.9 °F /  -16.2 °C 1017.5 in /  34452.6 hPa South 1.6 mph /  2.6 km/h 3.2 mph /  5.1 km/h 90 % 0.0 in /  0 mm
03:17 4.4 °F /  -15.3 °C 3.1 °F /  -16.1 °C 1017.2 in /  34442.4 hPa SE 1.6 mph /  2.6 km/h 4.8 mph /  7.7 km/h 91 % 0.0 in /  0 mm
03:22 4.4 °F /  -15.3 °C 3.1 °F /  -16.1 °C 1017.2 in /  34442.4 hPa SSE 3.2 mph /  5.1 km/h 4.8 mph /  7.7 km/h 91 % 0.0 in /  0 mm
03:27 4.4 °F /  -15.3 °C 3.1 °F /  -16.1 °C 1017.2 in /  34442.4 hPa SSE 3.2 mph /  5.1 km/h 6.4 mph /  10.3 km/h 91 % 0.0 in /  0 mm
03:32 4.4 °F /  -15.3 °C 2.9 °F /  -16.2 °C 1017.2 in /  34442.4 hPa SSW 3.2 mph /  5.1 km/h 6.4 mph /  10.3 km/h 90 % 0.0 in /  0 mm
03:42 4.5 °F /  -15.3 °C 3.0 °F /  -16.1 °C 1016.8 in /  34428.8 hPa SSE 3.2 mph /  5.1 km/h 6.4 mph /  10.3 km/h 90 % 0.0 in /  0 mm
03:47 4.5 °F /  -15.3 °C 3.0 °F /  -16.1 °C 1016.8 in /  34428.8 hPa SSE 4.8 mph /  7.7 km/h 6.4 mph /  10.3 km/h 90 % 0.0 in /  0 mm
03:52 4.6 °F /  -15.2 °C 2.9 °F /  -16.2 °C 1016.8 in /  34428.8 hPa South 4.8 mph /  7.7 km/h 8.0 mph /  12.9 km/h 89 % 0.0 in /  0 mm
03:57 4.6 °F /  -15.2 °C 2.9 °F /  -16.2 °C 1016.5 in /  34418.7 hPa SSE 3.2 mph /  5.1 km/h 9.7 mph /  15.6 km/h 89 % 0.0 in /  0 mm
04:02 4.6 °F /  -15.2 °C 2.9 °F /  -16.2 °C 1016.5 in /  34418.7 hPa South 6.4 mph /  10.3 km/h 9.7 mph /  15.6 km/h 89 % 0.0 in /  0 mm
04:07 4.6 °F /  -15.2 °C 2.9 °F /  -16.2 °C 1016.8 in /  34428.8 hPa South 4.8 mph /  7.7 km/h 9.7 mph /  15.6 km/h 89 % 0.0 in /  0 mm
04:12 4.6 °F /  -15.2 °C 2.9 °F /  -16.2 °C 1016.5 in /  34418.7 hPa SSE 1.6 mph /  2.6 km/h 9.7 mph /  15.6 km/h 89 % 0.0 in /  0 mm
04:17 4.6 °F /  -15.2 °C 2.9 °F /  -16.2 °C 1016.5 in /  34418.7 hPa South 3.2 mph /  5.1 km/h 9.7 mph /  15.6 km/h 89 % 0.0 in /  0 mm
04:22 4.5 °F /  -15.3 °C 2.8 °F /  -16.2 °C 1016.5 in /  34418.7 hPa South 4.8 mph /  7.7 km/h 9.7 mph /  15.6 km/h 89 % 0.0 in /  0 mm
04:27 4.5 °F /  -15.3 °C 3.0 °F /  -16.1 °C 1016.5 in /  34418.7 hPa South 1.6 mph /  2.6 km/h 8.0 mph /  12.9 km/h 90 % 0.0 in /  0 mm
04:32 4.4 °F /  -15.3 °C 2.9 °F /  -16.2 °C 1016.1 in /  34405.1 hPa Calm   6.4 mph /  10.3 km/h 90 % 0.0 in /  0 mm
04:37 4.4 °F /  -15.3 °C 2.9 °F /  -16.2 °C 1016.1 in /  34405.1 hPa Calm   6.4 mph /  10.3 km/h 90 % 0.3 in /  7.62 mm
04:42 4.3 °F /  -15.4 °C 3.0 °F /  -16.1 °C 1016.1 in /  34405.1 hPa Calm   6.4 mph /  10.3 km/h 91 % 0.3 in /  7.62 mm
04:47 4.2 °F /  -15.4 °C 2.9 °F /  -16.2 °C 1016.1 in /  34405.1 hPa SSE 1.6 mph /  2.6 km/h 4.8 mph /  7.7 km/h 91 % 0.5 in /  12.7 mm
04:52 4.2 °F /  -15.4 °C 2.9 °F /  -16.2 °C 1016.1 in /  34405.1 hPa Calm   6.4 mph /  10.3 km/h 91 % 0.5 in /  12.7 mm
04:57 4.2 °F /  -15.4 °C 2.9 °F /  -16.2 °C 1016.1 in /  34405.1 hPa Calm   6.4 mph /  10.3 km/h 91 % 0.5 in /  12.7 mm
05:02 4.2 °F /  -15.4 °C 3.0 °F /  -16.1 °C 1016.1 in /  34405.1 hPa Calm   6.4 mph /  10.3 km/h 92 % 0.5 in /  12.7 mm
05:12 4.1 °F /  -15.5 °C 2.9 °F /  -16.2 °C 1016.1 in /  34405.1 hPa SSE 1.6 mph /  2.6 km/h 4.8 mph /  7.7 km/h 92 % 1.3 in /  33.02 mm
05:17 4.0 °F /  -15.6 °C 3.0 °F /  -16.1 °C 1016.1 in /  34405.1 hPa SE 1.6 mph /  2.6 km/h 4.8 mph /  7.7 km/h 93 % 1.5 in /  38.1 mm
05:22 3.9 °F /  -15.6 °C 2.9 °F /  -16.2 °C 1016.1 in /  34405.1 hPa SSE 3.2 mph /  5.1 km/h 8.0 mph /  12.9 km/h 93 % 1.5 in /  38.1 mm
05:27 3.9 °F /  -15.6 °C 2.9 °F /  -16.2 °C 1016.1 in /  34405.1 hPa South 4.8 mph /  7.7 km/h 8.0 mph /  12.9 km/h 93 % 1.5 in /  38.1 mm
05:32 3.9 °F /  -15.6 °C 2.9 °F /  -16.2 °C 1016.1 in /  34405.1 hPa SE 1.6 mph /  2.6 km/h 8.0 mph /  12.9 km/h 93 % 1.5 in /  38.1 mm
05:37 3.8 °F /  -15.7 °C 2.8 °F /  -16.2 °C 1016.1 in /  34405.1 hPa SE 1.6 mph /  2.6 km/h 6.4 mph /  10.3 km/h 93 % 1.5 in /  38.1 mm
05:42 3.8 °F /  -15.7 °C 2.9 °F /  -16.2 °C 1016.1 in /  34405.1 hPa SE 4.8 mph /  7.7 km/h 6.4 mph /  10.3 km/h 94 % 1.5 in /  38.1 mm
05:47 3.8 °F /  -15.7 °C 2.9 °F /  -16.2 °C 1016.1 in /  34405.1 hPa Calm   8.0 mph /  12.9 km/h 94 % 1.5 in /  38.1 mm
05:52 3.8 °F /  -15.7 °C 2.9 °F /  -16.2 °C 1016.1 in /  34405.1 hPa SSE 1.6 mph /  2.6 km/h 8.0 mph /  12.9 km/h 94 % 1.5 in /  38.1 mm
05:57 3.7 °F /  -15.7 °C 2.8 °F /  -16.2 °C 1016.1 in /  34405.1 hPa Calm   8.0 mph /  12.9 km/h 94 % 1.5 in /  38.1 mm
06:02 3.7 °F /  -15.7 °C 2.8 °F /  -16.2 °C 1016.1 in /  34405.1 hPa Calm   6.4 mph /  10.3 km/h 94 % 1.5 in /  38.1 mm
06:12 3.7 °F /  -15.7 °C 3.0 °F /  -16.1 °C 1016.1 in /  34405.1 hPa SSE 6.4 mph /  10.3 km/h 8.0 mph /  12.9 km/h 95 % 1.5 in /  38.1 mm
06:17 3.7 °F /  -15.7 °C 3.0 °F /  -16.1 °C 1016.1 in /  34405.1 hPa SSE 3.2 mph /  5.1 km/h 8.0 mph /  12.9 km/h 95 % 1.5 in /  38.1 mm
06:22 3.6 °F /  -15.8 °C 2.9 °F /  -16.2 °C 1015.8 in /  34395 hPa Calm   8.0 mph /  12.9 km/h 95 % 1.3 in /  33.02 mm
06:27 3.6 °F /  -15.8 °C 2.9 °F /  -16.2 °C 1016.1 in /  34405.1 hPa SE 1.6 mph /  2.6 km/h 9.7 mph /  15.6 km/h 95 % 1.5 in /  38.1 mm
06:32 3.6 °F /  -15.8 °C 2.9 °F /  -16.2 °C 1015.8 in /  34395 hPa SSE 6.4 mph /  10.3 km/h 9.7 mph /  15.6 km/h 95 % 1.3 in /  33.02 mm
06:37 3.6 °F /  -15.8 °C 2.9 °F /  -16.2 °C 1015.8 in /  34395 hPa SSW 3.2 mph /  5.1 km/h 8.0 mph /  12.9 km/h 95 % 1.5 in /  38.1 mm
06:42 3.6 °F /  -15.8 °C 2.9 °F /  -16.2 °C 1015.8 in /  34395 hPa SSE 4.8 mph /  7.7 km/h 9.7 mph /  15.6 km/h 95 % 1.3 in /  33.02 mm
06:47 3.6 °F /  -15.8 °C 3.0 °F /  -16.1 °C 1015.8 in /  34395 hPa South 1.6 mph /  2.6 km/h 9.7 mph /  15.6 km/h 96 % 1.5 in /  38.1 mm
06:52 3.6 °F /  -15.8 °C 3.0 °F /  -16.1 °C 1015.8 in /  34395 hPa SE 1.6 mph /  2.6 km/h 9.7 mph /  15.6 km/h 96 % 1.5 in /  38.1 mm
06:57 3.6 °F /  -15.8 °C 3.0 °F /  -16.1 °C 1015.8 in /  34395 hPa SSW 1.6 mph /  2.6 km/h 9.7 mph /  15.6 km/h 96 % 1.0 in /  25.4 mm
07:02 3.6 °F /  -15.8 °C 3.0 °F /  -16.1 °C 1015.8 in /  34395 hPa South 3.2 mph /  5.1 km/h 8.0 mph /  12.9 km/h 96 % 1.0 in /  25.4 mm
07:07 3.6 °F /  -15.8 °C 3.0 °F /  -16.1 °C 1015.8 in /  34395 hPa South 1.6 mph /  2.6 km/h 9.7 mph /  15.6 km/h 96 % 1.0 in /  25.4 mm
07:12 3.6 °F /  -15.8 °C 3.0 °F /  -16.1 °C 1015.8 in /  34395 hPa SSE 1.6 mph /  2.6 km/h 9.7 mph /  15.6 km/h 96 % 0.8 in /  20.32 mm
07:17 3.6 °F /  -15.8 °C 3.0 °F /  -16.1 °C 1015.8 in /  34395 hPa SSW 3.2 mph /  5.1 km/h 9.7 mph /  15.6 km/h 96 % 0.8 in /  20.32 mm
07:22 3.6 °F /  -15.8 °C 3.0 °F /  -16.1 °C 1015.8 in /  34395 hPa South 3.2 mph /  5.1 km/h 9.7 mph /  15.6 km/h 96 % 0.5 in /  12.7 mm
07:27 3.6 °F /  -15.8 °C 3.0 °F /  -16.1 °C 1015.8 in /  34395 hPa Calm   9.7 mph /  15.6 km/h 96 % 0.5 in /  12.7 mm
07:32 3.7 °F /  -15.7 °C 3.1 °F /  -16.1 °C 1015.8 in /  34395 hPa SSW 3.2 mph /  5.1 km/h 6.4 mph /  10.3 km/h 96 % 0.5 in /  12.7 mm
07:37 3.7 °F /  -15.7 °C 3.1 °F /  -16.1 °C 1015.8 in /  34395 hPa South 4.8 mph /  7.7 km/h 6.4 mph /  10.3 km/h 96 % 0.5 in /  12.7 mm
07:42 3.7 °F /  -15.7 °C 3.1 °F /  -16.1 °C 1015.8 in /  34395 hPa Calm   6.4 mph /  10.3 km/h 96 % 0.5 in /  12.7 mm
07:52 3.7 °F /  -15.7 °C 3.3 °F /  -15.9 °C 1015.8 in /  34395 hPa SSE 1.6 mph /  2.6 km/h 4.8 mph /  7.7 km/h 97 % 0.5 in /  12.7 mm
07:57 3.7 °F /  -15.7 °C 3.3 °F /  -15.9 °C 1015.8 in /  34395 hPa SSE 1.6 mph /  2.6 km/h 4.8 mph /  7.7 km/h 97 % 0.5 in /  12.7 mm
08:02 3.7 °F /  -15.7 °C 3.3 °F /  -15.9 °C 1015.8 in /  34395 hPa SSW 1.6 mph /  2.6 km/h 8.0 mph /  12.9 km/h 97 % 0.5 in /  12.7 mm
08:07 3.8 °F /  -15.7 °C 3.4 °F /  -15.9 °C 1015.8 in /  34395 hPa SSW 3.2 mph /  5.1 km/h 8.0 mph /  12.9 km/h 97 % 0.5 in /  12.7 mm
08:12 3.8 °F /  -15.7 °C 3.4 °F /  -15.9 °C 1015.8 in /  34395 hPa Calm   8.0 mph /  12.9 km/h 97 % 0.5 in /  12.7 mm
08:17 3.8 °F /  -15.7 °C 3.4 °F /  -15.9 °C 1016.1 in /  34405.1 hPa SSW 1.6 mph /  2.6 km/h 6.4 mph /  10.3 km/h 97 % 0.5 in /  12.7 mm
08:22 3.8 °F /  -15.7 °C 3.4 °F /  -15.9 °C 1016.1 in /  34405.1 hPa Calm   4.8 mph /  7.7 km/h 97 % 0.5 in /  12.7 mm
08:27 3.8 °F /  -15.7 °C 3.4 °F /  -15.9 °C 1015.8 in /  34395 hPa SSE 1.6 mph /  2.6 km/h 4.8 mph /  7.7 km/h 97 % 0.8 in /  20.32 mm
08:32 3.9 °F /  -15.6 °C 3.5 °F /  -15.8 °C 1016.1 in /  34405.1 hPa SSW 3.2 mph /  5.1 km/h 4.8 mph /  7.7 km/h 97 % 1.0 in /  25.4 mm
08:37 3.9 °F /  -15.6 °C 3.5 °F /  -15.8 °C 1016.1 in /  34405.1 hPa Calm   6.4 mph /  10.3 km/h 97 % 0.8 in /  20.32 mm
08:42 3.9 °F /  -15.6 °C 3.5 °F /  -15.8 °C 1016.1 in /  34405.1 hPa SSE 1.6 mph /  2.6 km/h 6.4 mph /  10.3 km/h 97 % 0.8 in /  20.32 mm
08:47 3.9 °F /  -15.6 °C 3.5 °F /  -15.8 °C 1016.1 in /  34405.1 hPa Calm   6.4 mph /  10.3 km/h 97 % 0.8 in /  20.32 mm
08:52 3.9 °F /  -15.6 °C 3.5 °F /  -15.8 °C 1016.1 in /  34405.1 hPa Calm   4.8 mph /  7.7 km/h 97 % 0.5 in /  12.7 mm
08:57 3.9 °F /  -15.6 °C 3.5 °F /  -15.8 °C 1016.1 in /  34405.1 hPa SSE 3.2 mph /  5.1 km/h 4.8 mph /  7.7 km/h 97 % 0.8 in /  20.32 mm
09:02 3.9 °F /  -15.6 °C 3.5 °F /  -15.8 °C 1016.1 in /  34405.1 hPa South 1.6 mph /  2.6 km/h 4.8 mph /  7.7 km/h 97 % 0.5 in /  12.7 mm
09:12 4.0 °F /  -15.6 °C 3.6 °F /  -15.8 °C 1016.1 in /  34405.1 hPa SW 1.6 mph /  2.6 km/h 8.0 mph /  12.9 km/h 97 % 0.5 in /  12.7 mm
09:17 4.0 °F /  -15.6 °C 3.6 °F /  -15.8 °C 1016.1 in /  34405.1 hPa SSW 1.6 mph /  2.6 km/h 8.0 mph /  12.9 km/h 97 % 0.5 in /  12.7 mm
09:22 4.0 °F /  -15.6 °C 3.6 °F /  -15.8 °C 1016.1 in /  34405.1 hPa SSW 3.2 mph /  5.1 km/h 9.7 mph /  15.6 km/h 97 % 0.5 in /  12.7 mm
09:27 4.1 °F /  -15.5 °C 3.7 °F /  -15.7 °C 1016.1 in /  34405.1 hPa South 3.2 mph /  5.1 km/h 9.7 mph /  15.6 km/h 97 % 0.5 in /  12.7 mm
09:32 4.1 °F /  -15.5 °C 3.7 °F /  -15.7 °C 1016.5 in /  34418.7 hPa SSW 3.2 mph /  5.1 km/h 9.7 mph /  15.6 km/h 97 % 0.5 in /  12.7 mm
09:42 4.2 °F /  -15.4 °C 3.8 °F /  -15.7 °C 1016.1 in /  34405.1 hPa Calm   8.0 mph /  12.9 km/h 97 % 0.5 in /  12.7 mm
09:52 4.3 °F /  -15.4 °C 3.9 °F /  -15.6 °C 1016.5 in /  34418.7 hPa SSW 1.6 mph /  2.6 km/h 8.0 mph /  12.9 km/h 97 % 0.5 in /  12.7 mm
09:57 4.3 °F /  -15.4 °C 3.9 °F /  -15.6 °C 1016.5 in /  34418.7 hPa SSW 3.2 mph /  5.1 km/h 6.4 mph /  10.3 km/h 97 % 0.5 in /  12.7 mm
10:02 4.3 °F /  -15.4 °C 3.9 °F /  -15.6 °C 1016.5 in /  34418.7 hPa South 3.2 mph /  5.1 km/h 6.4 mph /  10.3 km/h 97 % 0.5 in /  12.7 mm
10:07 4.4 °F /  -15.3 °C 4.0 °F /  -15.6 °C 1016.5 in /  34418.7 hPa SSW 3.2 mph /  5.1 km/h 6.4 mph /  10.3 km/h 97 % 0.5 in /  12.7 mm
10:12 4.4 °F /  -15.3 °C 4.0 °F /  -15.6 °C 1016.5 in /  34418.7 hPa SW 4.8 mph /  7.7 km/h 6.4 mph /  10.3 km/h 97 % 0.5 in /  12.7 mm
10:17 4.4 °F /  -15.3 °C 4.0 °F /  -15.6 °C 1016.5 in /  34418.7 hPa South 1.6 mph /  2.6 km/h 6.4 mph /  10.3 km/h 97 % 0.5 in /  12.7 mm
10:22 4.5 °F /  -15.3 °C 4.1 °F /  -15.5 °C 1016.5 in /  34418.7 hPa Calm   4.8 mph /  7.7 km/h 97 % 0.3 in /  7.62 mm
10:27 4.5 °F /  -15.3 °C 4.1 °F /  -15.5 °C 1016.5 in /  34418.7 hPa SSW 1.6 mph /  2.6 km/h 4.8 mph /  7.7 km/h 97 % 0.3 in /  7.62 mm
10:32 4.6 °F /  -15.2 °C 4.2 °F /  -15.4 °C 1016.5 in /  34418.7 hPa SSW 1.6 mph /  2.6 km/h 3.2 mph /  5.1 km/h 97 % 0.3 in /  7.62 mm
10:37 4.7 °F /  -15.2 °C 4.3 °F /  -15.4 °C 1016.8 in /  34428.8 hPa SW 1.6 mph /  2.6 km/h 3.2 mph /  5.1 km/h 97 % 0.3 in /  7.62 mm
10:42 4.7 °F /  -15.2 °C 4.3 °F /  -15.4 °C 1016.8 in /  34428.8 hPa SSW 1.6 mph /  2.6 km/h 3.2 mph /  5.1 km/h 97 % 0.3 in /  7.62 mm
10:47 4.8 °F /  -15.1 °C 4.4 °F /  -15.3 °C 1016.8 in /  34428.8 hPa Calm   3.2 mph /  5.1 km/h 97 % 0.0 in /  0 mm
10:52 4.9 °F /  -15.1 °C 4.5 °F /  -15.3 °C 1016.8 in /  34428.8 hPa Calm   3.2 mph /  5.1 km/h 97 % 0.0 in /  0 mm
10:57 5.1 °F /  -14.9 °C 4.8 °F /  -15.1 °C 1016.8 in /  34428.8 hPa WSW 1.6 mph /  2.6 km/h 3.2 mph /  5.1 km/h 98 % 0.0 in /  0 mm
11:02 5.2 °F /  -14.9 °C 4.9 °F /  -15.1 °C 1016.8 in /  34428.8 hPa WSW 3.2 mph /  5.1 km/h 3.2 mph /  5.1 km/h 98 % 0.0 in /  0 mm
11:07 5.4 °F /  -14.8 °C 5.1 °F /  -14.9 °C 1016.8 in /  34428.8 hPa Calm   4.8 mph /  7.7 km/h 98 % 0.0 in /  0 mm
11:12 5.7 °F /  -14.6 °C 5.4 °F /  -14.8 °C 1016.8 in /  34428.8 hPa WSW 1.6 mph /  2.6 km/h 6.4 mph /  10.3 km/h 98 % 0.3 in /  7.62 mm
11:17 5.9 °F /  -14.5 °C 5.6 °F /  -14.7 °C 1017.2 in /  34442.4 hPa Calm   6.4 mph /  10.3 km/h 98 % 0.3 in /  7.62 mm
11:22 6.3 °F /  -14.3 °C 6.0 °F /  -14.4 °C 1017.2 in /  34442.4 hPa WNW 6.4 mph /  10.3 km/h 6.4 mph /  10.3 km/h 98 % 0.3 in /  7.62 mm
11:27 6.7 °F /  -14.1 °C 6.4 °F /  -14.2 °C 1017.2 in /  34442.4 hPa West 3.2 mph /  5.1 km/h 17.7 mph /  28.5 km/h 98 % 0.3 in /  7.62 mm
11:32 6.9 °F /  -13.9 °C 6.6 °F /  -14.1 °C 1017.2 in /  34442.4 hPa WSW 6.4 mph /  10.3 km/h 17.7 mph /  28.5 km/h 98 % 0.3 in /  7.62 mm
11:37 7.1 °F /  -13.8 °C 6.8 °F /  -14 °C 1017.2 in /  34442.4 hPa West 6.4 mph /  10.3 km/h 17.7 mph /  28.5 km/h 98 % 0.3 in /  7.62 mm
11:42 7.2 °F /  -13.8 °C 6.9 °F /  -13.9 °C 1017.2 in /  34442.4 hPa WNW 9.7 mph /  15.6 km/h 17.7 mph /  28.5 km/h 98 % 0.3 in /  7.62 mm
11:47 7.3 °F /  -13.7 °C 7.0 °F /  -13.9 °C 1017.2 in /  34442.4 hPa WNW 9.7 mph /  15.6 km/h 17.7 mph /  28.5 km/h 98 % 0.3 in /  7.62 mm
11:52 7.5 °F /  -13.6 °C 7.2 °F /  -13.8 °C 1016.8 in /  34428.8 hPa WNW 8.0 mph /  12.9 km/h 19.3 mph /  31.1 km/h 98 % 0.3 in /  7.62 mm
11:57 7.6 °F /  -13.6 °C 7.3 °F /  -13.7 °C 1017.2 in /  34442.4 hPa WNW 11.3 mph /  18.2 km/h 20.9 mph /  33.6 km/h 98 % 0.3 in /  7.62 mm
12:02 7.8 °F /  -13.4 °C 7.4 °F /  -13.7 °C 1017.2 in /  34442.4 hPa West 8.0 mph /  12.9 km/h 20.9 mph /  33.6 km/h 97 % 0.3 in /  7.62 mm
12:07 7.9 °F /  -13.4 °C 7.5 °F /  -13.6 °C 1016.8 in /  34428.8 hPa WNW 4.8 mph /  7.7 km/h 20.9 mph /  33.6 km/h 97 % 0.0 in /  0 mm
12:12 8.0 °F /  -13.3 °C 7.4 °F /  -13.7 °C 1016.8 in /  34428.8 hPa WNW 14.5 mph /  23.3 km/h 20.9 mph /  33.6 km/h 96 % 0.0 in /  0 mm
12:17 8.1 °F /  -13.3 °C 7.5 °F /  -13.6 °C 1016.8 in /  34428.8 hPa WNW 16.1 mph /  25.9 km/h 20.9 mph /  33.6 km/h 96 % 0.0 in /  0 mm
12:22 8.2 °F /  -13.2 °C 7.4 °F /  -13.7 °C 1016.8 in /  34428.8 hPa WSW 6.4 mph /  10.3 km/h 17.7 mph /  28.5 km/h 95 % 0.0 in /  0 mm
12:27 8.3 °F /  -13.2 °C 7.5 °F /  -13.6 °C 1016.8 in /  34428.8 hPa NW 8.0 mph /  12.9 km/h 24.1 mph /  38.8 km/h 95 % 0.0 in /  0 mm
12:32 8.4 °F /  -13.1 °C 7.6 °F /  -13.6 °C 1016.8 in /  34428.8 hPa WNW 8.0 mph /  12.9 km/h 24.1 mph /  38.8 km/h 95 % 0.0 in /  0 mm
12:37 8.5 °F /  -13.1 °C 7.6 °F /  -13.6 °C 1016.8 in /  34428.8 hPa WNW 12.9 mph /  20.8 km/h 24.1 mph /  38.8 km/h 94 % 0.0 in /  0 mm
12:42 8.6 °F /  -13 °C 7.7 °F /  -13.5 °C 1016.8 in /  34428.8 hPa West 11.3 mph /  18.2 km/h 24.1 mph /  38.8 km/h 94 % 0.0 in /  0 mm
12:47 8.6 °F /  -13 °C 7.5 °F /  -13.6 °C 1016.8 in /  34428.8 hPa NW 11.3 mph /  18.2 km/h 24.1 mph /  38.8 km/h 93 % 0.0 in /  0 mm
12:52 8.7 °F /  -12.9 °C 7.6 °F /  -13.6 °C 1016.8 in /  34428.8 hPa WNW 12.9 mph /  20.8 km/h 24.1 mph /  38.8 km/h 93 % 0.0 in /  0 mm
12:57 8.7 °F /  -12.9 °C 7.6 °F /  -13.6 °C 1016.8 in /  34428.8 hPa WNW 6.4 mph /  10.3 km/h 22.5 mph /  36.2 km/h 93 % 0.0 in /  0 mm
13:02 8.8 °F /  -12.9 °C 7.7 °F /  -13.5 °C 1016.8 in /  34428.8 hPa WNW 9.7 mph /  15.6 km/h 22.5 mph /  36.2 km/h 93 % 0.0 in /  0 mm
13:07 8.9 °F /  -12.8 °C 7.7 °F /  -13.5 °C 1016.8 in /  34428.8 hPa WNW 17.7 mph /  28.5 km/h 19.3 mph /  31.1 km/h 92 % 0.0 in /  0 mm
13:12 8.9 °F /  -12.8 °C 7.7 °F /  -13.5 °C 1016.8 in /  34428.8 hPa WNW 20.9 mph /  33.6 km/h 22.5 mph /  36.2 km/h 92 % 0.0 in /  0 mm
13:17 9.1 °F /  -12.7 °C 7.7 °F /  -13.5 °C 1016.8 in /  34428.8 hPa West 4.8 mph /  7.7 km/h 24.1 mph /  38.8 km/h 91 % 0.0 in /  0 mm
13:22 9.2 °F /  -12.7 °C 7.8 °F /  -13.4 °C 1016.8 in /  34428.8 hPa NW 16.1 mph /  25.9 km/h 24.1 mph /  38.8 km/h 91 % 0.0 in /  0 mm
13:27 9.4 °F /  -12.6 °C 7.8 °F /  -13.4 °C 1016.8 in /  34428.8 hPa West 12.9 mph /  20.8 km/h 24.1 mph /  38.8 km/h 90 % 0.0 in /  0 mm
13:32 9.5 °F /  -12.5 °C 7.6 °F /  -13.6 °C 1016.8 in /  34428.8 hPa West 11.3 mph /  18.2 km/h 17.7 mph /  28.5 km/h 88 % 0.0 in /  0 mm
13:37 9.6 °F /  -12.4 °C 7.7 °F /  -13.5 °C 1016.8 in /  34428.8 hPa West 8.0 mph /  12.9 km/h 24.1 mph /  38.8 km/h 88 % 0.0 in /  0 mm
13:42 9.6 °F /  -12.4 °C 7.7 °F /  -13.5 °C 1016.8 in /  34428.8 hPa WNW 6.4 mph /  10.3 km/h 24.1 mph /  38.8 km/h 88 % 0.0 in /  0 mm
13:47 9.7 °F /  -12.4 °C 7.6 °F /  -13.6 °C 1016.8 in /  34428.8 hPa West 9.7 mph /  15.6 km/h 20.9 mph /  33.6 km/h 87 % 0.0 in /  0 mm
13:52 9.7 °F /  -12.4 °C 7.5 °F /  -13.6 °C 1016.8 in /  34428.8 hPa WNW 9.7 mph /  15.6 km/h 29.0 mph /  46.7 km/h 86 % 0.0 in /  0 mm
13:57 9.7 °F /  -12.4 °C 7.5 °F /  -13.6 °C 1016.8 in /  34428.8 hPa NNW 6.4 mph /  10.3 km/h 29.0 mph /  46.7 km/h 86 % 0.0 in /  0 mm
14:02 9.6 °F /  -12.4 °C 7.5 °F /  -13.6 °C 1016.8 in /  34428.8 hPa WSW 9.7 mph /  15.6 km/h 29.0 mph /  46.7 km/h 87 % 0.0 in /  0 mm
14:07 9.5 °F /  -12.5 °C 7.4 °F /  -13.7 °C 1016.8 in /  34428.8 hPa WNW 16.1 mph /  25.9 km/h 20.9 mph /  33.6 km/h 87 % 0.0 in /  0 mm
14:12 9.6 °F /  -12.4 °C 7.5 °F /  -13.6 °C 1016.5 in /  34418.7 hPa WNW 14.5 mph /  23.3 km/h 20.9 mph /  33.6 km/h 87 % 0.0 in /  0 mm
14:17 9.8 °F /  -12.3 °C 7.7 °F /  -13.5 °C 1016.5 in /  34418.7 hPa WNW 6.4 mph /  10.3 km/h 17.7 mph /  28.5 km/h 87 % 0.0 in /  0 mm
14:22 10.1 °F /  -12.2 °C 7.7 °F /  -13.5 °C 1016.5 in /  34418.7 hPa NNW 4.8 mph /  7.7 km/h 17.7 mph /  28.5 km/h 85 % 0.0 in /  0 mm
14:27 10.2 °F /  -12.1 °C 7.6 °F /  -13.6 °C 1016.5 in /  34418.7 hPa West 9.7 mph /  15.6 km/h 17.7 mph /  28.5 km/h 84 % 0.0 in /  0 mm
14:32 10.3 °F /  -12.1 °C 7.7 °F /  -13.5 °C 1016.5 in /  34418.7 hPa WNW 11.3 mph /  18.2 km/h 17.7 mph /  28.5 km/h 84 % 0.0 in /  0 mm
14:37 10.3 °F /  -12.1 °C 7.5 °F /  -13.6 °C 1016.5 in /  34418.7 hPa NNW 6.4 mph /  10.3 km/h 20.9 mph /  33.6 km/h 83 % 0.0 in /  0 mm
14:42 10.4 °F /  -12 °C 7.5 °F /  -13.6 °C 1016.5 in /  34418.7 hPa WNW 16.1 mph /  25.9 km/h 20.9 mph /  33.6 km/h 82 % 0.0 in /  0 mm
14:47 10.3 °F /  -12.1 °C 7.5 °F /  -13.6 °C 1016.5 in /  34418.7 hPa West 8.0 mph /  12.9 km/h 20.9 mph /  33.6 km/h 83 % 0.0 in /  0 mm
14:52 10.2 °F /  -12.1 °C 6.9 °F /  -13.9 °C 1016.5 in /  34418.7 hPa WNW 16.1 mph /  25.9 km/h 20.9 mph /  33.6 km/h 80 % 0.0 in /  0 mm
14:57 10.3 °F /  -12.1 °C 7.5 °F /  -13.6 °C 1016.5 in /  34418.7 hPa NW 4.8 mph /  7.7 km/h 24.1 mph /  38.8 km/h 83 % 0.0 in /  0 mm
15:02 10.7 °F /  -11.8 °C 7.6 °F /  -13.6 °C 1016.5 in /  34418.7 hPa NNW 12.9 mph /  20.8 km/h 24.1 mph /  38.8 km/h 81 % 0.0 in /  0 mm
15:07 10.6 °F /  -11.9 °C 7.5 °F /  -13.6 °C 1016.5 in /  34418.7 hPa NW 6.4 mph /  10.3 km/h 20.9 mph /  33.6 km/h 81 % 0.0 in /  0 mm
15:12 10.6 °F /  -11.9 °C 7.5 °F /  -13.6 °C 1016.5 in /  34418.7 hPa WNW 8.0 mph /  12.9 km/h 16.1 mph /  25.9 km/h 81 % 0.0 in /  0 mm
15:17 10.5 °F /  -11.9 °C 7.2 °F /  -13.8 °C 1016.5 in /  34418.7 hPa WNW 3.2 mph /  5.1 km/h 16.1 mph /  25.9 km/h 80 % 0.0 in /  0 mm
15:22 10.4 °F /  -12 °C 6.9 °F /  -13.9 °C 1016.8 in /  34428.8 hPa WNW 11.3 mph /  18.2 km/h 16.1 mph /  25.9 km/h 79 % 0.0 in /  0 mm
15:32 10.3 °F /  -12.1 °C 6.8 °F /  -14 °C 1016.8 in /  34428.8 hPa WNW 12.9 mph /  20.8 km/h 17.7 mph /  28.5 km/h 79 % 0.0 in /  0 mm
15:37 10.3 °F /  -12.1 °C 6.6 °F /  -14.1 °C 1016.8 in /  34428.8 hPa WNW 11.3 mph /  18.2 km/h 20.9 mph /  33.6 km/h 78 % 0.0 in /  0 mm
15:42 10.2 °F /  -12.1 °C 6.7 °F /  -14.1 °C 1016.8 in /  34428.8 hPa NW 3.2 mph /  5.1 km/h 20.9 mph /  33.6 km/h 79 % 0.0 in /  0 mm
15:47 10.2 °F /  -12.1 °C 6.9 °F /  -13.9 °C 1016.8 in /  34428.8 hPa WNW 8.0 mph /  12.9 km/h 20.9 mph /  33.6 km/h 80 % 0.0 in /  0 mm
15:52 10.1 °F /  -12.2 °C 6.6 °F /  -14.1 °C 1017.2 in /  34442.4 hPa West 6.4 mph /  10.3 km/h 19.3 mph /  31.1 km/h 79 % 0.0 in /  0 mm
15:57 10.1 °F /  -12.2 °C 6.8 °F /  -14 °C 1017.2 in /  34442.4 hPa WNW 8.0 mph /  12.9 km/h 12.9 mph /  20.8 km/h 80 % 0.0 in /  0 mm
16:02 10.0 °F /  -12.2 °C 6.9 °F /  -13.9 °C 1017.2 in /  34442.4 hPa West 6.4 mph /  10.3 km/h 11.3 mph /  18.2 km/h 81 % 0.0 in /  0 mm
16:07 10.0 °F /  -12.2 °C 7.1 °F /  -13.8 °C 1017.2 in /  34442.4 hPa West 4.8 mph /  7.7 km/h 11.3 mph /  18.2 km/h 82 % 0.0 in /  0 mm
16:12 9.9 °F /  -12.3 °C 6.1 °F /  -14.4 °C 1017.2 in /  34442.4 hPa WNW 8.0 mph /  12.9 km/h 16.1 mph /  25.9 km/h 77 % 0.0 in /  0 mm
16:17 9.8 °F /  -12.3 °C 6.1 °F /  -14.4 °C 1017.2 in /  34442.4 hPa West 3.2 mph /  5.1 km/h 17.7 mph /  28.5 km/h 78 % 0.0 in /  0 mm
16:22 9.8 °F /  -12.3 °C 6.1 °F /  -14.4 °C 1017.2 in /  34442.4 hPa West 6.4 mph /  10.3 km/h 17.7 mph /  28.5 km/h 78 % 0.0 in /  0 mm
16:27 9.8 °F /  -12.3 °C 6.3 °F /  -14.3 °C 1017.2 in /  34442.4 hPa West 6.4 mph /  10.3 km/h 17.7 mph /  28.5 km/h 79 % 0.0 in /  0 mm
16:32 9.8 °F /  -12.3 °C 6.0 °F /  -14.4 °C 1017.5 in /  34452.6 hPa West 8.0 mph /  12.9 km/h 16.1 mph /  25.9 km/h 77 % 0.0 in /  0 mm
16:37 9.8 °F /  -12.3 °C 5.8 °F /  -14.6 °C 1017.5 in /  34452.6 hPa WNW 6.4 mph /  10.3 km/h 17.7 mph /  28.5 km/h 76 % 0.0 in /  0 mm
16:42 9.8 °F /  -12.3 °C 5.4 °F /  -14.8 °C 1017.5 in /  34452.6 hPa West 11.3 mph /  18.2 km/h 17.7 mph /  28.5 km/h 74 % 0.0 in /  0 mm
16:52 9.7 °F /  -12.4 °C 5.5 °F /  -14.7 °C 1017.5 in /  34452.6 hPa WNW 6.4 mph /  10.3 km/h 16.1 mph /  25.9 km/h 75 % 0.0 in /  0 mm
16:57 9.7 °F /  -12.4 °C 5.5 °F /  -14.7 °C 1017.5 in /  34452.6 hPa WNW 1.6 mph /  2.6 km/h 14.5 mph /  23.3 km/h 75 % 0.0 in /  0 mm
17:02 9.6 °F /  -12.4 °C 5.4 °F /  -14.8 °C 1017.5 in /  34452.6 hPa WNW 6.4 mph /  10.3 km/h 11.3 mph /  18.2 km/h 75 % 0.0 in /  0 mm
17:07 9.6 °F /  -12.4 °C 5.4 °F /  -14.8 °C 1017.5 in /  34452.6 hPa WNW 3.2 mph /  5.1 km/h 9.7 mph /  15.6 km/h 75 % 0.0 in /  0 mm
17:12 9.6 °F /  -12.4 °C 5.4 °F /  -14.8 °C 1017.5 in /  34452.6 hPa NW 4.8 mph /  7.7 km/h 9.7 mph /  15.6 km/h 75 % 0.0 in /  0 mm
17:17 9.5 °F /  -12.5 °C 5.3 °F /  -14.8 °C 1017.5 in /  34452.6 hPa West 6.4 mph /  10.3 km/h 9.7 mph /  15.6 km/h 75 % 0.0 in /  0 mm
17:22 9.4 °F /  -12.6 °C 5.2 °F /  -14.9 °C 1017.5 in /  34452.6 hPa WNW 3.2 mph /  5.1 km/h 8.0 mph /  12.9 km/h 75 % 0.0 in /  0 mm
17:27 9.3 °F /  -12.6 °C 5.3 °F /  -14.8 °C 1017.5 in /  34452.6 hPa West 4.8 mph /  7.7 km/h 8.0 mph /  12.9 km/h 76 % 0.0 in /  0 mm
17:32 9.2 °F /  -12.7 °C 5.2 °F /  -14.9 °C 1017.5 in /  34452.6 hPa West 6.4 mph /  10.3 km/h 11.3 mph /  18.2 km/h 76 % 0.0 in /  0 mm
17:37 9.1 °F /  -12.7 °C 5.1 °F /  -14.9 °C 1017.5 in /  34452.6 hPa NW 8.0 mph /  12.9 km/h 14.5 mph /  23.3 km/h 76 % 0.0 in /  0 mm
17:42 9.1 °F /  -12.7 °C 5.1 °F /  -14.9 °C 1017.8 in /  34462.7 hPa WNW 6.4 mph /  10.3 km/h 14.5 mph /  23.3 km/h 76 % 0.0 in /  0 mm
17:52 9.0 °F /  -12.8 °C 5.0 °F /  -15 °C 1017.8 in /  34462.7 hPa WNW 8.0 mph /  12.9 km/h 12.9 mph /  20.8 km/h 76 % 0.0 in /  0 mm
17:57 8.9 °F /  -12.8 °C 5.1 °F /  -14.9 °C 1017.8 in /  34462.7 hPa West 8.0 mph /  12.9 km/h 12.9 mph /  20.8 km/h 77 % 0.0 in /  0 mm
18:02 8.8 °F /  -12.9 °C 5.0 °F /  -15 °C 1017.8 in /  34462.7 hPa West 3.2 mph /  5.1 km/h 12.9 mph /  20.8 km/h 77 % 0.0 in /  0 mm
18:07 8.7 °F /  -12.9 °C 5.1 °F /  -14.9 °C 1017.8 in /  34462.7 hPa West 1.6 mph /  2.6 km/h 12.9 mph /  20.8 km/h 78 % 0.0 in /  0 mm
18:12 8.7 °F /  -12.9 °C 5.1 °F /  -14.9 °C 1017.8 in /  34462.7 hPa WNW 6.4 mph /  10.3 km/h 11.3 mph /  18.2 km/h 78 % 0.0 in /  0 mm
18:17 8.7 °F /  -12.9 °C 4.9 °F /  -15.1 °C 1017.8 in /  34462.7 hPa WNW 8.0 mph /  12.9 km/h 14.5 mph /  23.3 km/h 77 % 0.0 in /  0 mm
18:22 8.7 °F /  -12.9 °C 4.9 °F /  -15.1 °C 1017.8 in /  34462.7 hPa West 8.0 mph /  12.9 km/h 16.1 mph /  25.9 km/h 77 % 0.0 in /  0 mm
18:27 8.6 °F /  -13 °C 5.0 °F /  -15 °C 1017.8 in /  34462.7 hPa West 6.4 mph /  10.3 km/h 16.1 mph /  25.9 km/h 78 % 0.0 in /  0 mm
18:32 8.6 °F /  -13 °C 4.8 °F /  -15.1 °C 1017.8 in /  34462.7 hPa WNW 4.8 mph /  7.7 km/h 12.9 mph /  20.8 km/h 77 % 0.0 in /  0 mm
18:37 8.5 °F /  -13.1 °C 4.9 °F /  -15.1 °C 1017.8 in /  34462.7 hPa West 1.6 mph /  2.6 km/h 11.3 mph /  18.2 km/h 78 % 0.0 in /  0 mm
18:47 8.4 °F /  -13.1 °C 4.6 °F /  -15.2 °C 1017.8 in /  34462.7 hPa West 14.5 mph /  23.3 km/h 14.5 mph /  23.3 km/h 77 % 0.0 in /  0 mm
18:52 8.3 °F /  -13.2 °C 4.5 °F /  -15.3 °C 1017.8 in /  34462.7 hPa WNW 3.2 mph /  5.1 km/h 17.7 mph /  28.5 km/h 77 % 0.0 in /  0 mm
18:57 8.2 °F /  -13.2 °C 4.4 °F /  -15.3 °C 1017.8 in /  34462.7 hPa WNW 3.2 mph /  5.1 km/h 17.7 mph /  28.5 km/h 77 % 0.0 in /  0 mm
19:02 8.2 °F /  -13.2 °C 4.4 °F /  -15.3 °C 1017.8 in /  34462.7 hPa West 9.7 mph /  15.6 km/h 17.7 mph /  28.5 km/h 77 % 0.0 in /  0 mm
19:07 8.1 °F /  -13.3 °C 4.3 °F /  -15.4 °C 1018.2 in /  34476.3 hPa NW 6.4 mph /  10.3 km/h 12.9 mph /  20.8 km/h 77 % 0.0 in /  0 mm
19:12 8.0 °F /  -13.3 °C 4.2 °F /  -15.4 °C 1017.8 in /  34462.7 hPa West 3.2 mph /  5.1 km/h 12.9 mph /  20.8 km/h 77 % 0.0 in /  0 mm
19:17 8.0 °F /  -13.3 °C 4.4 °F /  -15.3 °C 1018.2 in /  34476.3 hPa WNW 8.0 mph /  12.9 km/h 12.9 mph /  20.8 km/h 78 % 0.0 in /  0 mm
19:22 7.9 °F /  -13.4 °C 4.5 °F /  -15.3 °C 1018.2 in /  34476.3 hPa NW 4.8 mph /  7.7 km/h 12.9 mph /  20.8 km/h 79 % 0.0 in /  0 mm
19:27 7.8 °F /  -13.4 °C 4.4 °F /  -15.3 °C 1018.2 in /  34476.3 hPa NW 8.0 mph /  12.9 km/h 12.9 mph /  20.8 km/h 79 % 0.0 in /  0 mm
19:32 7.8 °F /  -13.4 °C 4.6 °F /  -15.2 °C 1018.2 in /  34476.3 hPa WNW 6.4 mph /  10.3 km/h 12.9 mph /  20.8 km/h 80 % 0.0 in /  0 mm
19:37 7.7 °F /  -13.5 °C 4.5 °F /  -15.3 °C 1018.2 in /  34476.3 hPa WNW 1.6 mph /  2.6 km/h 12.9 mph /  20.8 km/h 80 % 0.0 in /  0 mm
19:42 7.6 °F /  -13.6 °C 4.4 °F /  -15.3 °C 1018.2 in /  34476.3 hPa NW 3.2 mph /  5.1 km/h 12.9 mph /  20.8 km/h 80 % 0.0 in /  0 mm
19:47 7.6 °F /  -13.6 °C 4.4 °F /  -15.3 °C 1018.2 in /  34476.3 hPa Calm   8.0 mph /  12.9 km/h 80 % 0.0 in /  0 mm
19:52 7.6 °F /  -13.6 °C 4.5 °F /  -15.3 °C 1018.2 in /  34476.3 hPa Calm   4.8 mph /  7.7 km/h 81 % 0.0 in /  0 mm
19:57 7.5 °F /  -13.6 °C 4.3 °F /  -15.4 °C 1018.2 in /  34476.3 hPa NNW 1.6 mph /  2.6 km/h 4.8 mph /  7.7 km/h 80 % 0.0 in /  0 mm
20:07 7.3 °F /  -13.7 °C 4.4 °F /  -15.3 °C 1018.2 in /  34476.3 hPa NNE 1.6 mph /  2.6 km/h 4.8 mph /  7.7 km/h 82 % 0.0 in /  0 mm
20:12 7.3 °F /  -13.7 °C 4.4 °F /  -15.3 °C 1018.2 in /  34476.3 hPa NNE 3.2 mph /  5.1 km/h 3.2 mph /  5.1 km/h 82 % 0.0 in /  0 mm
20:17 7.2 °F /  -13.8 °C 4.3 °F /  -15.4 °C 1018.2 in /  34476.3 hPa Calm   3.2 mph /  5.1 km/h 82 % 0.0 in /  0 mm
20:22 7.3 °F /  -13.7 °C 4.3 °F /  -15.4 °C 1018.2 in /  34476.3 hPa Calm   3.2 mph /  5.1 km/h 81 % 0.0 in /  0 mm
20:32 7.6 °F /  -13.6 °C 3.8 °F /  -15.7 °C 1018.2 in /  34476.3 hPa Calm   1.6 mph /  2.6 km/h 77 % 0.0 in /  0 mm
20:37 7.6 °F /  -13.6 °C 3.8 °F /  -15.7 °C 1018.2 in /  34476.3 hPa Calm   1.6 mph /  2.6 km/h 77 % 0.0 in /  0 mm
20:42 7.4 °F /  -13.7 °C 4.0 °F /  -15.6 °C 1018.2 in /  34476.3 hPa Calm   1.6 mph /  2.6 km/h 79 % 0.0 in /  0 mm
20:47 7.1 °F /  -13.8 °C 4.1 °F /  -15.5 °C 1018.2 in /  34476.3 hPa Calm   1.6 mph /  2.6 km/h 81 % 0.0 in /  0 mm
20:52 6.9 °F /  -13.9 °C 4.0 °F /  -15.6 °C 1018.2 in /  34476.3 hPa Calm   1.6 mph /  2.6 km/h 82 % 0.0 in /  0 mm
20:57 6.8 °F /  -14 °C 3.9 °F /  -15.6 °C 1018.2 in /  34476.3 hPa Calm   1.6 mph /  2.6 km/h 82 % 0.0 in /  0 mm
21:02 6.6 °F /  -14.1 °C 3.9 °F /  -15.6 °C 1018.2 in /  34476.3 hPa Calm   1.6 mph /  2.6 km/h 83 % 0.0 in /  0 mm
21:07 6.4 °F /  -14.2 °C 3.7 °F /  -15.7 °C 1018.2 in /  34476.3 hPa Calm   3.2 mph /  5.1 km/h 83 % 0.0 in /  0 mm
21:12 6.3 °F /  -14.3 °C 3.8 °F /  -15.7 °C 1018.2 in /  34476.3 hPa Calm   3.2 mph /  5.1 km/h 84 % 0.0 in /  0 mm
21:17 6.2 °F /  -14.3 °C 3.7 °F /  -15.7 °C 1018.2 in /  34476.3 hPa WNW 1.6 mph /  2.6 km/h 3.2 mph /  5.1 km/h 84 % 0.0 in /  0 mm
21:22 6.1 °F /  -14.4 °C 3.8 °F /  -15.7 °C 1018.2 in /  34476.3 hPa Calm   1.6 mph /  2.6 km/h 85 % 0.0 in /  0 mm
21:27 5.9 °F /  -14.5 °C 3.6 °F /  -15.8 °C 1018.2 in /  34476.3 hPa Calm   1.6 mph /  2.6 km/h 85 % 0.0 in /  0 mm
21:32 5.8 °F /  -14.6 °C 3.6 °F /  -15.8 °C 1018.2 in /  34476.3 hPa WNW 1.6 mph /  2.6 km/h 1.6 mph /  2.6 km/h 86 % 0.0 in /  0 mm
21:37 5.7 °F /  -14.6 °C 3.5 °F /  -15.8 °C 1018.2 in /  34476.3 hPa WNW 1.6 mph /  2.6 km/h 3.2 mph /  5.1 km/h 86 % 0.0 in /  0 mm
21:42 5.7 °F /  -14.6 °C 3.5 °F /  -15.8 °C 1018.2 in /  34476.3 hPa Calm   3.2 mph /  5.1 km/h 86 % 0.0 in /  0 mm
21:47 5.5 °F /  -14.7 °C 3.5 °F /  -15.8 °C 1018.5 in /  34486.4 hPa Calm   3.2 mph /  5.1 km/h 87 % 0.0 in /  0 mm
21:52 5.3 °F /  -14.8 °C 3.3 °F /  -15.9 °C 1018.5 in /  34486.4 hPa Calm   3.2 mph /  5.1 km/h 87 % 0.0 in /  0 mm
21:57 5.4 °F /  -14.8 °C 3.6 °F /  -15.8 °C 1018.5 in /  34486.4 hPa West 1.6 mph /  2.6 km/h 3.2 mph /  5.1 km/h 88 % 0.0 in /  0 mm
22:02 5.4 °F /  -14.8 °C 3.6 °F /  -15.8 °C 1018.5 in /  34486.4 hPa Calm   3.2 mph /  5.1 km/h 88 % 0.0 in /  0 mm
22:07 5.2 °F /  -14.9 °C 3.5 °F /  -15.8 °C 1018.5 in /  34486.4 hPa West 4.8 mph /  7.7 km/h 4.8 mph /  7.7 km/h 89 % 0.0 in /  0 mm
22:12 5.4 °F /  -14.8 °C 3.6 °F /  -15.8 °C 1018.5 in /  34486.4 hPa West 3.2 mph /  5.1 km/h 6.4 mph /  10.3 km/h 88 % 0.0 in /  0 mm
22:17 5.5 °F /  -14.7 °C 3.7 °F /  -15.7 °C 1018.5 in /  34486.4 hPa WSW 3.2 mph /  5.1 km/h 6.4 mph /  10.3 km/h 88 % 0.0 in /  0 mm
22:22 5.5 °F /  -14.7 °C 3.7 °F /  -15.7 °C 1018.5 in /  34486.4 hPa West 4.8 mph /  7.7 km/h 6.4 mph /  10.3 km/h 88 % 0.0 in /  0 mm
22:32 5.3 °F /  -14.8 °C 3.6 °F /  -15.8 °C 1018.5 in /  34486.4 hPa Calm   6.4 mph /  10.3 km/h 89 % 0.0 in /  0 mm
22:37 5.3 °F /  -14.8 °C 3.5 °F /  -15.8 °C 1018.5 in /  34486.4 hPa Calm   4.8 mph /  7.7 km/h 88 % 0.0 in /  0 mm
22:42 5.1 °F /  -14.9 °C 3.4 °F /  -15.9 °C 1018.5 in /  34486.4 hPa Calm   4.8 mph /  7.7 km/h 89 % 0.0 in /  0 mm
22:47 5.1 °F /  -14.9 °C 3.4 °F /  -15.9 °C 1018.5 in /  34486.4 hPa Calm   1.6 mph /  2.6 km/h 89 % 0.0 in /  0 mm
22:52 5.1 °F /  -14.9 °C 3.4 °F /  -15.9 °C 1018.5 in /  34486.4 hPa Calm   1.6 mph /  2.6 km/h 89 % 0.0 in /  0 mm
22:57 5.0 °F /  -15 °C 3.3 °F /  -15.9 °C 1018.5 in /  34486.4 hPa Calm   1.6 mph /  2.6 km/h 89 % 0.0 in /  0 mm
23:02 4.8 °F /  -15.1 °C 3.1 °F /  -16.1 °C 1018.5 in /  34486.4 hPa Calm   1.6 mph /  2.6 km/h 89 % 0.0 in /  0 mm
23:07 4.7 °F /  -15.2 °C 3.2 °F /  -16 °C 1018.5 in /  34486.4 hPa Calm   1.6 mph /  2.6 km/h 90 % 0.0 in /  0 mm
23:12 4.8 °F /  -15.1 °C 3.3 °F /  -15.9 °C 1018.5 in /  34486.4 hPa Calm   3.2 mph /  5.1 km/h 90 % 0.0 in /  0 mm
23:17 4.8 °F /  -15.1 °C 3.3 °F /  -15.9 °C 1018.5 in /  34486.4 hPa North 3.2 mph /  5.1 km/h 3.2 mph /  5.1 km/h 90 % 0.0 in /  0 mm
23:22 4.7 °F /  -15.2 °C 3.2 °F /  -16 °C 1018.5 in /  34486.4 hPa North 3.2 mph /  5.1 km/h 4.8 mph /  7.7 km/h 90 % 0.0 in /  0 mm
23:27 4.9 °F /  -15.1 °C 3.6 °F /  -15.8 °C 1018.5 in /  34486.4 hPa NNW 1.6 mph /  2.6 km/h 4.8 mph /  7.7 km/h 91 % 0.0 in /  0 mm
23:32 5.1 °F /  -14.9 °C 3.6 °F /  -15.8 °C 1018.5 in /  34486.4 hPa NNW 1.6 mph /  2.6 km/h 4.8 mph /  7.7 km/h 90 % 0.0 in /  0 mm
23:37 5.2 °F /  -14.9 °C 3.7 °F /  -15.7 °C 1018.5 in /  34486.4 hPa North 1.6 mph /  2.6 km/h 4.8 mph /  7.7 km/h 90 % 0.0 in /  0 mm
23:42 5.1 °F /  -14.9 °C 3.4 °F /  -15.9 °C 1018.5 in /  34486.4 hPa North 1.6 mph /  2.6 km/h 4.8 mph /  7.7 km/h 89 % 0.0 in /  0 mm
23:47 5.2 °F /  -14.9 °C 3.7 °F /  -15.7 °C 1018.5 in /  34486.4 hPa NNW 1.6 mph /  2.6 km/h 4.8 mph /  7.7 km/h 90 % 0.0 in /  0 mm
23:52 5.3 °F /  -14.8 °C 3.6 °F /  -15.8 °C 1018.5 in /  34486.4 hPa NW 1.6 mph /  2.6 km/h 3.2 mph /  5.1 km/h 89 % 0.0 in /  0 mm
23:57 5.4 °F /  -14.8 °C 3.7 °F /  -15.7 °C 1018.5 in /  34486.4 hPa NW 1.6 mph /  2.6 km/h 4.8 mph /  7.7 km/h 89 % 0.0 in /  0 mm
Meteo18
Compliments of Weather Underground - 4 mb

Script developed by  Jim McMurry - jmcmurry@mwt.net Adapted for the template by  Wim van der Kuil - Leuven-Template.eu

You find our weather info also at:

European Weather Network

Weather Underground

Equipment we use:

Weather-station
Davis Vue

Weather-program
Meteobridge

Weather-server
Raspberry PI 2 B+

Provider
1 and 1

Davis Vue

Meteobridge

Raspberry PI 2 B+

1 and 1